createdAt,value
2022-08-26T00:02:05.575Z,13.30
2022-08-26T00:04:52.509Z,13.30
2022-08-26T00:07:39.652Z,13.20
2022-08-26T00:10:30.593Z,13.20
2022-08-26T00:13:19.593Z,13.20
2022-08-26T00:16:08.935Z,13.20
2022-08-26T00:19:00.218Z,13.10
2022-08-26T00:21:48.708Z,13.10
2022-08-26T00:24:36.773Z,13.00
2022-08-26T00:27:24.954Z,13.00
2022-08-26T00:30:15.768Z,12.90
2022-08-26T00:33:05.499Z,12.80
2022-08-26T00:35:53.730Z,13.00
2022-08-26T00:38:40.591Z,13.00
2022-08-26T00:41:29.191Z,12.90
2022-08-26T00:44:16.239Z,12.90
2022-08-26T00:47:08.947Z,12.90
2022-08-26T00:49:57.337Z,12.80
2022-08-26T00:52:46.889Z,12.80
2022-08-26T00:55:41.366Z,12.80
2022-08-26T00:58:32.811Z,12.70
2022-08-26T01:01:23.002Z,12.70
2022-08-26T01:04:11.177Z,12.70
2022-08-26T01:06:58.269Z,12.70
2022-08-26T01:09:47.213Z,12.70
2022-08-26T01:12:42.005Z,12.70
2022-08-26T01:15:33.442Z,12.60
2022-08-26T01:18:21.478Z,12.60
2022-08-26T01:21:16.602Z,12.60
2022-08-26T01:24:07.783Z,12.50
2022-08-26T01:26:59.588Z,12.50
2022-08-26T01:29:48.851Z,12.50
2022-08-26T01:32:36.995Z,12.40
2022-08-26T01:35:26.754Z,12.40
2022-08-26T01:38:13.922Z,12.40
2022-08-26T01:41:04.437Z,12.40
2022-08-26T01:44:06.301Z,12.40
2022-08-26T01:46:59.661Z,12.40
2022-08-26T01:49:49.238Z,12.30
2022-08-26T01:52:40.588Z,12.30
2022-08-26T01:55:32.942Z,12.30
2022-08-26T01:58:25.886Z,12.30
2022-08-26T02:01:14.717Z,12.30
2022-08-26T02:04:10.167Z,12.30
2022-08-26T02:06:59.100Z,12.30
2022-08-26T02:09:46.352Z,12.30
2022-08-26T02:12:33.733Z,12.20
2022-08-26T02:15:22.058Z,12.20
2022-08-26T02:18:14.156Z,12.10
2022-08-26T02:21:01.594Z,12.10
2022-08-26T02:23:49.198Z,12.10
2022-08-26T02:26:36.451Z,12.10
2022-08-26T02:29:30.293Z,12.10
2022-08-26T02:32:20.553Z,12.10
2022-08-26T02:35:08.540Z,12.10
2022-08-26T02:37:56.897Z,12.00
2022-08-26T02:40:44.690Z,12.00
2022-08-26T02:43:32.893Z,12.00
2022-08-26T02:46:21.503Z,12.00
2022-08-26T02:49:19.476Z,11.90
2022-08-26T02:52:07.383Z,11.90
2022-08-26T02:54:54.858Z,11.90
2022-08-26T02:57:42.264Z,11.80
2022-08-26T03:00:29.446Z,11.80
2022-08-26T03:03:16.793Z,11.80
2022-08-26T03:06:05.581Z,11.80
2022-08-26T03:08:52.988Z,11.80
2022-08-26T03:11:40.059Z,11.70
2022-08-26T03:14:27.340Z,11.70
2022-08-26T03:17:14.713Z,11.70
2022-08-26T03:20:02.313Z,11.70
2022-08-26T03:22:53.133Z,11.60
2022-08-26T03:25:43.093Z,11.60
2022-08-26T03:28:30.248Z,11.60
2022-08-26T03:31:16.890Z,11.60
2022-08-26T03:34:04.268Z,11.60
2022-08-26T03:36:51.502Z,11.60
2022-08-26T03:39:40.146Z,11.60
2022-08-26T03:42:27.660Z,11.60
2022-08-26T03:45:16.562Z,11.60
2022-08-26T03:48:04.297Z,11.60
2022-08-26T03:50:51.508Z,11.50
2022-08-26T03:53:38.721Z,11.50
2022-08-26T03:56:27.461Z,11.40
2022-08-26T03:59:14.638Z,11.40
2022-08-26T04:02:01.439Z,11.40
2022-08-26T04:04:49.285Z,11.40
2022-08-26T04:07:36.757Z,11.40
2022-08-26T04:10:28.515Z,11.40
2022-08-26T04:13:17.905Z,11.40
2022-08-26T04:16:05.576Z,11.40
2022-08-26T04:18:52.431Z,11.30
2022-08-26T04:21:41.320Z,11.30
2022-08-26T04:24:28.749Z,11.30
2022-08-26T04:27:17.253Z,11.30
2022-08-26T04:30:06.401Z,11.30
2022-08-26T04:32:55.645Z,11.30
2022-08-26T04:35:44.092Z,11.30
2022-08-26T04:38:31.375Z,11.30
2022-08-26T04:41:18.512Z,11.30
2022-08-26T04:44:06.452Z,11.30
2022-08-26T04:46:55.509Z,11.30
2022-08-26T04:49:42.626Z,11.30
2022-08-26T04:52:29.840Z,11.30
2022-08-26T04:55:18.011Z,11.30
2022-08-26T04:58:08.780Z,11.30
2022-08-26T05:00:58.513Z,11.30
2022-08-26T05:03:46.987Z,11.30
2022-08-26T05:06:37.007Z,11.20
2022-08-26T05:09:24.846Z,11.30
2022-08-26T05:12:11.962Z,11.30
2022-08-26T05:15:00.027Z,11.40
2022-08-26T05:17:47.880Z,11.40
2022-08-26T05:20:42.986Z,11.50
2022-08-26T05:23:32.049Z,11.50
2022-08-26T05:26:23.048Z,11.60
2022-08-26T05:29:10.407Z,11.70
2022-08-26T05:31:57.185Z,11.70
2022-08-26T05:34:44.986Z,11.80
2022-08-26T05:37:34.441Z,11.90
2022-08-26T05:40:22.433Z,11.90
2022-08-26T05:43:10.876Z,12.00
2022-08-26T05:45:58.162Z,12.00
2022-08-26T05:48:46.925Z,12.10
2022-08-26T05:51:35.033Z,12.10
2022-08-26T05:54:24.118Z,12.20
2022-08-26T05:57:12.167Z,12.30
2022-08-26T05:59:59.410Z,12.30
2022-08-26T06:02:48.571Z,12.40
2022-08-26T06:05:40.057Z,12.50
2022-08-26T06:08:27.114Z,12.70
2022-08-26T06:11:19.040Z,12.90
2022-08-26T06:14:07.964Z,13.10
2022-08-26T06:16:55.445Z,13.30
2022-08-26T06:19:42.449Z,13.60
2022-08-26T06:23:01.939Z,13.80
2022-08-26T06:25:50.482Z,14.00
2022-08-26T06:28:38.871Z,14.30
2022-08-26T06:31:26.378Z,14.60
2022-08-26T06:34:14.420Z,14.80
2022-08-26T06:37:03.692Z,15.10
2022-08-26T06:39:51.181Z,15.30
2022-08-26T06:42:38.290Z,15.70
2022-08-26T06:45:27.833Z,16.40
2022-08-26T06:48:17.434Z,17.20
2022-08-26T06:51:08.975Z,17.80
2022-08-26T06:53:59.539Z,18.50
2022-08-26T06:56:46.590Z,18.80
2022-08-26T06:59:35.051Z,19.30
2022-08-26T07:02:23.911Z,20.00
2022-08-26T07:05:15.943Z,20.20
2022-08-26T07:08:04.626Z,20.40
2022-08-26T07:10:51.914Z,20.60
2022-08-26T07:13:43.007Z,21.30
2022-08-26T07:16:29.924Z,21.50
2022-08-26T07:19:28.988Z,21.40
2022-08-26T07:22:18.877Z,22.00
2022-08-26T07:25:09.568Z,22.20
2022-08-26T07:27:56.461Z,22.90
2022-08-26T07:30:43.632Z,22.70
2022-08-26T07:33:31.147Z,22.40
2022-08-26T07:36:21.643Z,23.00
2022-08-26T07:39:08.938Z,23.00
2022-08-26T07:41:57.266Z,22.90
2022-08-26T07:44:45.305Z,22.80
2022-08-26T07:47:32.815Z,23.60
2022-08-26T07:50:20.141Z,23.80
2022-08-26T07:53:10.806Z,24.20
2022-08-26T07:55:58.978Z,25.10
2022-08-26T07:58:50.494Z,24.70
2022-08-26T08:01:39.308Z,25.40
2022-08-26T08:04:27.772Z,26.00
2022-08-26T08:07:16.066Z,26.30
2022-08-26T08:10:09.751Z,27.10
2022-08-26T08:12:59.786Z,28.10
2022-08-26T08:15:47.081Z,28.90
2022-08-26T08:18:37.632Z,30.20
2022-08-26T08:21:25.841Z,31.20
2022-08-26T08:24:12.951Z,32.10
2022-08-26T08:27:03.322Z,32.40
2022-08-26T08:29:50.318Z,32.40
2022-08-26T08:32:40.218Z,32.70
2022-08-26T08:35:27.416Z,33.00
2022-08-26T08:38:14.271Z,33.40
2022-08-26T08:41:01.402Z,33.20
2022-08-26T08:43:54.278Z,33.10
2022-08-26T08:46:42.947Z,32.40
2022-08-26T08:49:32.116Z,32.40
2022-08-26T08:52:27.268Z,32.10
2022-08-26T08:55:18.330Z,32.00
2022-08-26T08:58:10.083Z,31.90
2022-08-26T09:01:04.753Z,31.60
2022-08-26T09:04:02.434Z,31.80
2022-08-26T09:06:53.511Z,32.20
2022-08-26T09:09:44.457Z,32.10
2022-08-26T09:12:35.445Z,31.80
2022-08-26T09:15:30.329Z,31.70
2022-08-26T09:18:30.313Z,31.10
2022-08-26T09:21:18.546Z,30.90
2022-08-26T09:24:06.120Z,31.00
2022-08-26T09:26:56.531Z,30.90
2022-08-26T09:29:45.535Z,31.40
2022-08-26T09:32:37.392Z,31.00
2022-08-26T09:35:30.974Z,31.50
2022-08-26T09:38:28.045Z,31.50
2022-08-26T09:41:32.216Z,32.10
2022-08-26T09:44:32.056Z,32.00
2022-08-26T09:47:31.631Z,31.70
2022-08-26T09:50:28.669Z,31.80
2022-08-26T09:53:20.981Z,32.10
2022-08-26T09:56:16.720Z,31.70
2022-08-26T09:59:06.509Z,31.20
2022-08-26T10:02:17.128Z,31.40
2022-08-26T10:05:09.857Z,31.60
2022-08-26T10:07:58.068Z,31.50
2022-08-26T10:10:48.910Z,31.50
2022-08-26T10:13:45.657Z,31.60
2022-08-26T10:16:41.098Z,31.60
2022-08-26T10:19:41.326Z,31.40
2022-08-26T10:22:46.632Z,31.70
2022-08-26T10:25:36.883Z,31.90
2022-08-26T10:28:32.407Z,31.80
2022-08-26T10:31:40.179Z,31.40
2022-08-26T10:34:28.110Z,30.60
2022-08-26T10:37:20.503Z,30.60
2022-08-26T10:40:14.050Z,30.40
2022-08-26T10:43:11.245Z,30.20
2022-08-26T10:46:04.330Z,30.30
2022-08-26T10:48:56.816Z,30.40
2022-08-26T10:51:55.213Z,30.20
2022-08-26T10:54:48.967Z,30.20
2022-08-26T10:57:48.338Z,30.00
2022-08-26T11:01:10.284Z,29.80
2022-08-26T11:04:05.885Z,29.60
2022-08-26T11:07:26.325Z,29.60
2022-08-26T11:11:05.133Z,29.20
2022-08-26T11:14:13.248Z,29.10
2022-08-26T11:17:02.097Z,28.50
2022-08-26T11:20:08.959Z,28.50
2022-08-26T11:23:38.646Z,28.60
2022-08-26T11:26:55.334Z,28.40
2022-08-26T11:30:05.812Z,27.90
2022-08-26T11:32:55.082Z,28.00
2022-08-26T11:35:52.943Z,28.20
2022-08-26T11:38:43.027Z,28.50
2022-08-26T11:41:31.943Z,28.70
2022-08-26T11:44:21.702Z,29.10
2022-08-26T11:47:11.472Z,29.30
2022-08-26T11:50:20.341Z,29.80
2022-08-26T11:53:08.866Z,29.90
2022-08-26T11:55:58.195Z,30.10
2022-08-26T11:58:47.897Z,30.40
2022-08-26T12:01:37.062Z,30.90
2022-08-26T12:04:30.293Z,31.50
2022-08-26T12:07:24.346Z,31.60
2022-08-26T12:10:30.039Z,31.80
2022-08-26T12:13:23.605Z,31.80
2022-08-26T12:16:13.058Z,31.50
2022-08-26T12:19:01.247Z,31.70
2022-08-26T12:21:49.715Z,31.40
2022-08-26T12:24:37.245Z,31.30
2022-08-26T12:27:28.674Z,31.70
2022-08-26T12:30:19.984Z,31.60
2022-08-26T12:33:15.766Z,31.50
2022-08-26T12:36:10.075Z,31.70
2022-08-26T12:38:58.406Z,31.30
2022-08-26T12:41:49.668Z,31.10
2022-08-26T12:44:53.430Z,30.00
2022-08-26T12:47:44.300Z,28.80
2022-08-26T12:50:33.778Z,28.30
2022-08-26T12:53:23.893Z,28.00
2022-08-26T12:56:26.545Z,28.00
2022-08-26T12:59:25.056Z,28.70
2022-08-26T13:02:36.535Z,29.10
2022-08-26T13:05:24.717Z,29.40
2022-08-26T13:08:15.788Z,29.70
2022-08-26T13:11:05.732Z,29.50
2022-08-26T13:13:57.104Z,28.70
2022-08-26T13:16:46.002Z,28.00
2022-08-26T13:19:34.652Z,27.70
2022-08-26T13:22:25.445Z,27.30
2022-08-26T13:25:13.491Z,27.00
2022-08-26T13:28:00.260Z,26.60
2022-08-26T13:30:49.741Z,26.30
2022-08-26T13:33:38.381Z,26.10
2022-08-26T13:36:27.690Z,25.90
2022-08-26T13:39:15.345Z,25.60
2022-08-26T13:42:02.455Z,25.50
2022-08-26T13:44:51.772Z,25.30
2022-08-26T13:47:39.027Z,25.20
2022-08-26T13:50:26.182Z,25.00
2022-08-26T13:53:14.713Z,25.00
2022-08-26T13:56:05.914Z,25.00
2022-08-26T13:58:53.118Z,24.90
2022-08-26T14:01:40.091Z,24.70
2022-08-26T14:04:27.588Z,24.60
2022-08-26T14:07:14.701Z,24.50
2022-08-26T14:10:02.721Z,24.40
2022-08-26T14:12:49.625Z,24.30
2022-08-26T14:15:38.818Z,24.20
2022-08-26T14:18:31.003Z,24.10
2022-08-26T14:21:17.902Z,24.00
2022-08-26T14:24:05.211Z,24.00
2022-08-26T14:26:53.452Z,24.00
2022-08-26T14:29:41.430Z,24.10
2022-08-26T14:32:29.924Z,24.00
2022-08-26T14:35:19.438Z,24.00
2022-08-26T14:38:06.291Z,24.10
2022-08-26T14:40:52.992Z,24.10
2022-08-26T14:43:45.420Z,24.10
2022-08-26T14:46:37.201Z,24.20
2022-08-26T14:49:25.252Z,24.10
2022-08-26T14:52:12.262Z,24.10
2022-08-26T14:54:58.536Z,24.20
2022-08-26T14:57:45.300Z,24.20
2022-08-26T15:00:34.025Z,24.30
2022-08-26T15:03:24.922Z,24.40
2022-08-26T15:06:19.351Z,24.40
2022-08-26T15:09:07.075Z,24.40
2022-08-26T15:11:55.869Z,24.30
2022-08-26T15:14:42.860Z,24.40
2022-08-26T15:17:31.396Z,24.30
2022-08-26T15:20:18.276Z,24.30
2022-08-26T15:23:07.008Z,24.30
2022-08-26T15:25:54.913Z,24.30
2022-08-26T15:28:42.438Z,24.20
2022-08-26T15:31:32.234Z,24.20
2022-08-26T15:34:20.976Z,24.20
2022-08-26T15:37:08.680Z,24.20
2022-08-26T15:39:58.827Z,24.20
2022-08-26T15:42:46.192Z,24.20
2022-08-26T15:45:41.527Z,24.30
2022-08-26T15:48:28.717Z,24.20
2022-08-26T15:51:24.780Z,24.20
2022-08-26T15:54:12.192Z,24.20
2022-08-26T15:57:02.185Z,24.10
2022-08-26T15:59:49.434Z,23.90
2022-08-26T16:02:37.585Z,23.80
2022-08-26T16:05:24.926Z,23.40
2022-08-26T16:08:15.435Z,23.20
2022-08-26T16:11:04.595Z,23.00
2022-08-26T16:13:51.710Z,22.70
2022-08-26T16:16:40.390Z,22.60
2022-08-26T16:19:27.496Z,22.40
2022-08-26T16:22:14.448Z,22.30
2022-08-26T16:25:02.784Z,22.20
2022-08-26T16:27:49.450Z,21.90
2022-08-26T16:30:37.076Z,21.60
2022-08-26T16:33:29.278Z,21.10
2022-08-26T16:36:17.420Z,20.90
2022-08-26T16:39:06.800Z,20.40
2022-08-26T16:41:55.428Z,20.30
2022-08-26T16:44:45.331Z,20.20
2022-08-26T16:47:32.916Z,20.30
2022-08-26T16:50:21.296Z,20.10
2022-08-26T16:55:55.629Z,20.00
2022-08-26T16:58:43.538Z,19.90
2022-08-26T17:01:31.035Z,19.90
2022-08-26T17:04:19.014Z,19.70
2022-08-26T17:07:06.066Z,19.70
2022-08-26T17:09:52.821Z,19.60
2022-08-26T17:12:40.448Z,19.50
2022-08-26T17:15:28.825Z,19.30
2022-08-26T17:18:16.413Z,19.10
2022-08-26T17:21:05.582Z,19.10
2022-08-26T17:23:52.923Z,19.10
2022-08-26T17:26:40.009Z,19.00
2022-08-26T17:29:26.801Z,19.00
2022-08-26T17:32:15.860Z,19.00
2022-08-26T17:35:04.064Z,18.90
2022-08-26T17:37:51.358Z,19.00
2022-08-26T17:40:38.757Z,18.90
2022-08-26T17:43:26.739Z,18.90
2022-08-26T17:46:14.374Z,18.90
2022-08-26T17:49:02.876Z,18.90
2022-08-26T17:51:49.600Z,18.90
2022-08-26T17:54:36.836Z,18.80
2022-08-26T17:57:23.692Z,18.70
2022-08-26T18:00:14.095Z,18.70
2022-08-26T18:03:01.397Z,18.60
2022-08-26T18:05:51.129Z,18.60
2022-08-26T18:08:38.943Z,18.60
2022-08-26T18:11:26.991Z,18.50
2022-08-26T18:14:13.747Z,18.40
2022-08-26T18:17:00.916Z,18.20
2022-08-26T18:19:48.658Z,18.20
2022-08-26T18:22:40.793Z,18.20
2022-08-26T18:25:27.752Z,18.20
2022-08-26T18:28:14.756Z,18.20
2022-08-26T18:31:02.250Z,18.20
2022-08-26T18:33:49.582Z,18.20
2022-08-26T18:36:37.976Z,18.20
2022-08-26T18:39:26.264Z,18.20
2022-08-26T18:42:13.228Z,18.20
2022-08-26T18:45:00.408Z,18.20
2022-08-26T18:47:47.572Z,18.10
2022-08-26T18:50:34.657Z,18.10
2022-08-26T18:53:21.976Z,18.10
2022-08-26T18:56:11.671Z,18.00
2022-08-26T18:58:59.867Z,18.00
2022-08-26T19:01:50.655Z,18.00
2022-08-26T19:04:38.321Z,18.10
2022-08-26T19:07:25.067Z,18.00
2022-08-26T19:10:12.949Z,18.00
2022-08-26T19:13:02.432Z,18.00
2022-08-26T19:15:49.697Z,18.00
2022-08-26T19:18:36.354Z,18.00
2022-08-26T19:21:24.958Z,18.00
2022-08-26T19:24:17.768Z,18.00
2022-08-26T19:27:05.430Z,18.00
2022-08-26T19:29:54.059Z,18.00
2022-08-26T19:32:40.729Z,17.90
2022-08-26T19:35:27.861Z,17.90
2022-08-26T19:38:15.416Z,17.90
2022-08-26T19:41:02.827Z,17.80
2022-08-26T19:43:50.094Z,17.90
2022-08-26T19:46:40.426Z,17.90
2022-08-26T19:49:27.658Z,17.80
2022-08-26T19:52:14.574Z,17.80
2022-08-26T19:55:02.390Z,17.80
2022-08-26T19:57:52.348Z,17.70
2022-08-26T20:00:39.766Z,17.70
2022-08-26T20:03:28.586Z,17.50
2022-08-26T20:06:17.224Z,17.40
2022-08-26T20:09:04.234Z,17.20
2022-08-26T20:11:51.231Z,17.20
2022-08-26T20:14:38.792Z,17.10
2022-08-26T20:17:25.888Z,17.10
2022-08-26T20:20:33.692Z,17.10
2022-08-26T20:23:21.114Z,16.90
2022-08-26T20:26:08.293Z,16.90
2022-08-26T20:28:55.337Z,16.90
2022-08-26T20:31:44.089Z,16.90
2022-08-26T20:34:31.157Z,16.90
2022-08-26T20:37:21.461Z,16.80
2022-08-26T20:40:10.795Z,16.80
2022-08-26T20:42:57.771Z,16.80
2022-08-26T20:45:45.065Z,16.80
2022-08-26T20:48:32.267Z,16.70
2022-08-26T20:51:20.712Z,16.70
2022-08-26T20:54:09.438Z,16.60
2022-08-26T20:56:57.572Z,16.60
2022-08-26T20:59:44.667Z,16.60
2022-08-26T21:02:31.516Z,16.60
2022-08-26T21:05:18.686Z,16.60
2022-08-26T21:08:05.617Z,16.60
2022-08-26T21:10:54.033Z,16.60
2022-08-26T21:14:01.494Z,16.60
2022-08-26T21:16:48.581Z,16.60
2022-08-26T21:19:35.926Z,16.60
2022-08-26T21:22:22.759Z,16.70
2022-08-26T21:25:10.800Z,16.70
2022-08-26T21:27:59.053Z,16.70
2022-08-26T21:30:48.940Z,16.70
2022-08-26T21:33:36.653Z,16.70
2022-08-26T21:36:23.305Z,16.70
2022-08-26T21:39:12.026Z,16.70
2022-08-26T21:41:59.427Z,16.70
2022-08-26T21:44:52.754Z,16.70
2022-08-26T21:47:40.654Z,16.70
2022-08-26T21:50:29.553Z,16.70
2022-08-26T21:53:16.669Z,16.80
2022-08-26T21:56:06.521Z,16.70
2022-08-26T21:58:54.905Z,16.70
2022-08-26T22:01:43.367Z,16.80
2022-08-26T22:04:30.463Z,16.80
2022-08-26T22:07:19.184Z,16.70
2022-08-26T22:10:08.077Z,16.70
2022-08-26T22:12:56.035Z,16.80
2022-08-26T22:15:43.266Z,16.80
2022-08-26T22:18:32.456Z,16.80
2022-08-26T22:21:23.753Z,16.80
2022-08-26T22:24:12.219Z,16.90
2022-08-26T22:26:59.251Z,16.90
2022-08-26T22:29:48.017Z,16.90
2022-08-26T22:32:35.291Z,16.90
2022-08-26T22:35:28.857Z,16.90
2022-08-26T22:38:16.865Z,16.90
2022-08-26T22:41:08.251Z,16.90
2022-08-26T22:43:55.553Z,16.90
2022-08-26T22:46:43.775Z,16.90
2022-08-26T22:49:30.481Z,16.80
2022-08-26T22:52:18.653Z,16.80
2022-08-26T22:55:06.776Z,16.90
2022-08-26T22:57:54.046Z,16.90
2022-08-26T23:00:41.510Z,16.90
2022-08-26T23:03:29.011Z,17.00
2022-08-26T23:06:16.115Z,17.00
2022-08-26T23:09:04.333Z,17.00
2022-08-26T23:11:51.702Z,17.00
2022-08-26T23:14:41.203Z,17.00
2022-08-26T23:17:28.291Z,17.10
2022-08-26T23:20:16.785Z,17.10
2022-08-26T23:23:04.232Z,17.10
2022-08-26T23:25:52.587Z,17.10
2022-08-26T23:28:42.621Z,17.10
2022-08-26T23:31:29.665Z,17.10
2022-08-26T23:34:33.793Z,17.10
2022-08-26T23:37:21.072Z,17.10
2022-08-26T23:40:12.552Z,17.10
2022-08-26T23:43:04.372Z,17.10
2022-08-26T23:45:51.518Z,17.10
2022-08-26T23:48:38.676Z,17.10
2022-08-26T23:51:43.190Z,17.10
2022-08-26T23:54:34.102Z,17.10
2022-08-26T23:57:23.133Z,17.10
